sensor_id;sensor_type;location;lat;lon;timestamp;P1;durP1;ratioP1;P2;durP2;ratioP2
505;SDS011;551;48.524;9.056;2022-11-20T00:00:56;4.23;;;3.37;;
505;SDS011;551;48.524;9.056;2022-11-20T00:03:22;5.53;;;3.80;;
505;SDS011;551;48.524;9.056;2022-11-20T00:05:47;4.27;;;3.57;;
505;SDS011;551;48.524;9.056;2022-11-20T00:08:13;3.60;;;3.27;;
505;SDS011;551;48.524;9.056;2022-11-20T00:10:39;3.80;;;3.20;;
505;SDS011;551;48.524;9.056;2022-11-20T00:13:05;4.00;;;3.60;;
505;SDS011;551;48.524;9.056;2022-11-20T00:15:31;3.43;;;3.13;;
505;SDS011;551;48.524;9.056;2022-11-20T00:17:57;4.23;;;3.40;;
505;SDS011;551;48.524;9.056;2022-11-20T00:20:22;4.80;;;3.90;;
505;SDS011;551;48.524;9.056;2022-11-20T00:22:49;7.70;;;3.70;;
505;SDS011;551;48.524;9.056;2022-11-20T00:25:14;6.13;;;3.73;;
505;SDS011;551;48.524;9.056;2022-11-20T00:27:40;4.77;;;3.80;;
505;SDS011;551;48.524;9.056;2022-11-20T00:30:06;4.03;;;3.63;;
505;SDS011;551;48.524;9.056;2022-11-20T00:32:32;4.40;;;3.47;;
505;SDS011;551;48.524;9.056;2022-11-20T00:34:57;4.97;;;3.57;;
505;SDS011;551;48.524;9.056;2022-11-20T00:37:23;3.83;;;3.43;;
505;SDS011;551;48.524;9.056;2022-11-20T00:39:48;6.00;;;3.67;;
505;SDS011;551;48.524;9.056;2022-11-20T00:42:14;4.70;;;3.53;;
505;SDS011;551;48.524;9.056;2022-11-20T00:44:39;5.10;;;4.30;;
505;SDS011;551;48.524;9.056;2022-11-20T00:47:05;6.90;;;4.30;;
505;SDS011;551;48.524;9.056;2022-11-20T00:49:30;8.23;;;4.30;;
505;SDS011;551;48.524;9.056;2022-11-20T00:51:56;8.03;;;4.43;;
505;SDS011;551;48.524;9.056;2022-11-20T00:54:21;4.63;;;4.23;;
505;SDS011;551;48.524;9.056;2022-11-20T00:56:46;4.90;;;4.40;;
505;SDS011;551;48.524;9.056;2022-11-20T00:59:12;5.20;;;4.37;;
505;SDS011;551;48.524;9.056;2022-11-20T01:01:38;7.90;;;4.60;;
505;SDS011;551;48.524;9.056;2022-11-20T01:04:03;6.47;;;4.67;;
505;SDS011;551;48.524;9.056;2022-11-20T01:06:30;6.17;;;4.33;;
505;SDS011;551;48.524;9.056;2022-11-20T01:08:59;4.70;;;4.20;;
505;SDS011;551;48.524;9.056;2022-11-20T01:11:27;13.13;;;4.97;;
505;SDS011;551;48.524;9.056;2022-11-20T01:13:55;5.63;;;4.13;;
505;SDS011;551;48.524;9.056;2022-11-20T01:16:41;6.40;;;4.67;;
505;SDS011;551;48.524;9.056;2022-11-20T01:19:13;5.13;;;4.27;;
505;SDS011;551;48.524;9.056;2022-11-20T01:21:41;6.83;;;5.10;;
505;SDS011;551;48.524;9.056;2022-11-20T01:24:10;7.27;;;4.30;;
505;SDS011;551;48.524;9.056;2022-11-20T01:26:37;6.20;;;4.70;;
505;SDS011;551;48.524;9.056;2022-11-20T01:29:04;4.90;;;4.30;;
505;SDS011;551;48.524;9.056;2022-11-20T01:33:58;5.53;;;4.03;;
505;SDS011;551;48.524;9.056;2022-11-20T01:36:29;4.63;;;4.10;;
505;SDS011;551;48.524;9.056;2022-11-20T01:38:57;6.20;;;5.00;;
505;SDS011;551;48.524;9.056;2022-11-20T01:41:25;6.60;;;4.57;;
505;SDS011;551;48.524;9.056;2022-11-20T01:44:12;9.27;;;4.87;;
505;SDS011;551;48.524;9.056;2022-11-20T01:46:40;7.40;;;4.47;;
505;SDS011;551;48.524;9.056;2022-11-20T01:49:16;7.90;;;5.90;;
505;SDS011;551;48.524;9.056;2022-11-20T01:51:49;6.30;;;5.27;;
505;SDS011;551;48.524;9.056;2022-11-20T01:54:25;7.80;;;6.37;;
505;SDS011;551;48.524;9.056;2022-11-20T01:56:57;7.30;;;5.60;;
505;SDS011;551;48.524;9.056;2022-11-20T01:59:25;7.93;;;6.20;;
505;SDS011;551;48.524;9.056;2022-11-20T02:01:52;6.53;;;5.20;;
505;SDS011;551;48.524;9.056;2022-11-20T02:04:18;6.43;;;5.30;;
505;SDS011;551;48.524;9.056;2022-11-20T02:06:46;7.87;;;6.30;;
505;SDS011;551;48.524;9.056;2022-11-20T02:09:14;5.03;;;4.63;;
505;SDS011;551;48.524;9.056;2022-11-20T02:11:41;7.50;;;5.27;;
505;SDS011;551;48.524;9.056;2022-11-20T02:14:07;6.10;;;5.60;;
505;SDS011;551;48.524;9.056;2022-11-20T02:16:34;5.67;;;5.13;;
505;SDS011;551;48.524;9.056;2022-11-20T02:19:04;6.00;;;5.10;;
505;SDS011;551;48.524;9.056;2022-11-20T02:21:40;7.77;;;5.30;;
505;SDS011;551;48.524;9.056;2022-11-20T02:24:07;8.00;;;5.10;;
505;SDS011;551;48.524;9.056;2022-11-20T02:27:01;4.53;;;4.13;;
505;SDS011;551;48.524;9.056;2022-11-20T02:29:31;12.57;;;4.53;;
505;SDS011;551;48.524;9.056;2022-11-20T02:32:02;5.03;;;4.60;;
505;SDS011;551;48.524;9.056;2022-11-20T02:34:28;4.83;;;4.37;;
505;SDS011;551;48.524;9.056;2022-11-20T02:36:54;5.73;;;4.43;;
505;SDS011;551;48.524;9.056;2022-11-20T02:39:21;8.00;;;4.40;;
505;SDS011;551;48.524;9.056;2022-11-20T02:41:50;6.97;;;4.90;;
505;SDS011;551;48.524;9.056;2022-11-20T02:44:18;5.80;;;4.20;;
505;SDS011;551;48.524;9.056;2022-11-20T02:46:43;8.30;;;4.70;;
505;SDS011;551;48.524;9.056;2022-11-20T02:49:09;5.87;;;5.30;;
505;SDS011;551;48.524;9.056;2022-11-20T02:51:34;5.03;;;4.50;;
505;SDS011;551;48.524;9.056;2022-11-20T02:54:00;7.17;;;5.57;;
505;SDS011;551;48.524;9.056;2022-11-20T02:56:26;6.40;;;5.30;;
505;SDS011;551;48.524;9.056;2022-11-20T02:58:51;6.87;;;5.43;;
505;SDS011;551;48.524;9.056;2022-11-20T03:01:17;6.10;;;5.50;;
505;SDS011;551;48.524;9.056;2022-11-20T03:03:43;6.93;;;4.80;;
505;SDS011;551;48.524;9.056;2022-11-20T03:06:08;4.87;;;4.37;;
505;SDS011;551;48.524;9.056;2022-11-20T03:08:34;4.90;;;4.50;;
505;SDS011;551;48.524;9.056;2022-11-20T03:11:03;4.77;;;4.30;;
505;SDS011;551;48.524;9.056;2022-11-20T03:13:31;5.10;;;4.10;;
505;SDS011;551;48.524;9.056;2022-11-20T03:15:56;6.90;;;5.10;;
505;SDS011;551;48.524;9.056;2022-11-20T03:18:22;6.00;;;4.80;;
505;SDS011;551;48.524;9.056;2022-11-20T03:20:47;9.40;;;4.57;;
505;SDS011;551;48.524;9.056;2022-11-20T03:23:13;6.27;;;4.57;;
505;SDS011;551;48.524;9.056;2022-11-20T03:25:38;5.27;;;4.40;;
505;SDS011;551;48.524;9.056;2022-11-20T03:28:04;7.20;;;4.10;;
505;SDS011;551;48.524;9.056;2022-11-20T03:30:29;6.03;;;4.73;;
505;SDS011;551;48.524;9.056;2022-11-20T03:32:55;4.73;;;4.33;;
505;SDS011;551;48.524;9.056;2022-11-20T03:35:20;6.77;;;5.23;;
505;SDS011;551;48.524;9.056;2022-11-20T03:37:46;5.67;;;4.00;;
505;SDS011;551;48.524;9.056;2022-11-20T03:40:12;4.33;;;3.93;;
505;SDS011;551;48.524;9.056;2022-11-20T03:42:37;5.60;;;4.67;;
505;SDS011;551;48.524;9.056;2022-11-20T03:45:12;6.43;;;4.90;;
505;SDS011;551;48.524;9.056;2022-11-20T03:47:39;8.63;;;4.50;;
505;SDS011;551;48.524;9.056;2022-11-20T03:50:05;7.40;;;4.03;;
505;SDS011;551;48.524;9.056;2022-11-20T03:52:30;4.83;;;4.17;;
505;SDS011;551;48.524;9.056;2022-11-20T03:54:56;5.90;;;3.90;;
505;SDS011;551;48.524;9.056;2022-11-20T03:57:21;6.00;;;4.03;;
505;SDS011;551;48.524;9.056;2022-11-20T03:59:47;5.40;;;4.10;;
505;SDS011;551;48.524;9.056;2022-11-20T04:02:13;5.03;;;3.97;;
505;SDS011;551;48.524;9.056;2022-11-20T04:04:38;5.23;;;4.23;;
505;SDS011;551;48.524;9.056;2022-11-20T04:07:03;4.47;;;3.80;;
505;SDS011;551;48.524;9.056;2022-11-20T04:09:29;5.50;;;4.50;;
505;SDS011;551;48.524;9.056;2022-11-20T04:11:55;6.33;;;4.40;;
505;SDS011;551;48.524;9.056;2022-11-20T04:14:20;4.37;;;3.97;;
505;SDS011;551;48.524;9.056;2022-11-20T04:16:46;4.03;;;3.70;;
505;SDS011;551;48.524;9.056;2022-11-20T04:19:12;4.60;;;4.17;;
505;SDS011;551;48.524;9.056;2022-11-20T04:21:39;5.30;;;3.60;;
505;SDS011;551;48.524;9.056;2022-11-20T04:24:05;3.97;;;3.67;;
505;SDS011;551;48.524;9.056;2022-11-20T04:26:31;4.27;;;3.87;;
505;SDS011;551;48.524;9.056;2022-11-20T04:28:57;3.90;;;3.50;;
505;SDS011;551;48.524;9.056;2022-11-20T04:31:24;4.10;;;3.77;;
505;SDS011;551;48.524;9.056;2022-11-20T04:33:52;5.50;;;3.27;;
505;SDS011;551;48.524;9.056;2022-11-20T04:36:19;3.80;;;3.50;;
505;SDS011;551;48.524;9.056;2022-11-20T04:38:54;7.73;;;3.50;;
505;SDS011;551;48.524;9.056;2022-11-20T04:41:22;3.63;;;3.33;;
505;SDS011;551;48.524;9.056;2022-11-20T04:43:51;3.27;;;2.97;;
505;SDS011;551;48.524;9.056;2022-11-20T04:46:24;4.17;;;2.33;;
505;SDS011;551;48.524;9.056;2022-11-20T04:48:51;2.60;;;2.40;;
505;SDS011;551;48.524;9.056;2022-11-20T04:51:17;2.77;;;2.40;;
505;SDS011;551;48.524;9.056;2022-11-20T04:53:43;1.80;;;1.70;;
505;SDS011;551;48.524;9.056;2022-11-20T04:56:09;2.37;;;1.90;;
505;SDS011;551;48.524;9.056;2022-11-20T04:58:36;2.67;;;2.43;;
505;SDS011;551;48.524;9.056;2022-11-20T05:01:06;4.27;;;2.00;;
505;SDS011;551;48.524;9.056;2022-11-20T05:03:37;2.40;;;2.20;;
505;SDS011;551;48.524;9.056;2022-11-20T05:06:04;3.87;;;1.80;;
505;SDS011;551;48.524;9.056;2022-11-20T05:08:31;2.70;;;2.13;;
505;SDS011;551;48.524;9.056;2022-11-20T05:11:11;3.90;;;2.33;;
505;SDS011;551;48.524;9.056;2022-11-20T05:13:38;2.37;;;2.17;;
505;SDS011;551;48.524;9.056;2022-11-20T05:16:05;2.60;;;2.03;;
505;SDS011;551;48.524;9.056;2022-11-20T05:18:32;2.40;;;2.20;;
505;SDS011;551;48.524;9.056;2022-11-20T05:20:58;1.83;;;1.73;;
505;SDS011;551;48.524;9.056;2022-11-20T05:23:24;3.00;;;2.70;;
505;SDS011;551;48.524;9.056;2022-11-20T05:25:54;2.70;;;2.50;;
505;SDS011;551;48.524;9.056;2022-11-20T05:28:20;2.57;;;2.37;;
505;SDS011;551;48.524;9.056;2022-11-20T05:30:46;2.90;;;2.30;;
505;SDS011;551;48.524;9.056;2022-11-20T05:33:13;1.90;;;1.80;;
505;SDS011;551;48.524;9.056;2022-11-20T05:35:38;3.40;;;2.30;;
505;SDS011;551;48.524;9.056;2022-11-20T05:38:04;2.30;;;2.10;;
505;SDS011;551;48.524;9.056;2022-11-20T05:40:29;2.30;;;2.10;;
505;SDS011;551;48.524;9.056;2022-11-20T05:42:55;2.43;;;2.27;;
505;SDS011;551;48.524;9.056;2022-11-20T05:45:20;3.77;;;2.37;;
505;SDS011;551;48.524;9.056;2022-11-20T05:47:46;2.10;;;1.90;;
505;SDS011;551;48.524;9.056;2022-11-20T05:50:12;2.43;;;2.23;;
505;SDS011;551;48.524;9.056;2022-11-20T05:52:38;3.90;;;2.20;;
505;SDS011;551;48.524;9.056;2022-11-20T05:55:03;2.00;;;1.80;;
505;SDS011;551;48.524;9.056;2022-11-20T05:57:30;2.17;;;2.07;;
505;SDS011;551;48.524;9.056;2022-11-20T05:59:55;2.53;;;2.10;;
505;SDS011;551;48.524;9.056;2022-11-20T06:02:21;2.27;;;2.07;;
505;SDS011;551;48.524;9.056;2022-11-20T06:04:46;1.70;;;1.60;;
505;SDS011;551;48.524;9.056;2022-11-20T06:07:12;3.47;;;2.40;;
505;SDS011;551;48.524;9.056;2022-11-20T06:09:37;2.50;;;2.30;;
505;SDS011;551;48.524;9.056;2022-11-20T06:12:03;2.10;;;2.00;;
505;SDS011;551;48.524;9.056;2022-11-20T06:14:29;1.80;;;1.70;;
505;SDS011;551;48.524;9.056;2022-11-20T06:16:54;2.03;;;1.83;;
505;SDS011;551;48.524;9.056;2022-11-20T06:19:20;2.17;;;1.97;;
505;SDS011;551;48.524;9.056;2022-11-20T06:21:47;3.80;;;2.20;;
505;SDS011;551;48.524;9.056;2022-11-20T06:24:13;2.17;;;2.07;;
505;SDS011;551;48.524;9.056;2022-11-20T06:26:39;2.33;;;2.13;;
505;SDS011;551;48.524;9.056;2022-11-20T06:29:04;2.33;;;2.07;;
505;SDS011;551;48.524;9.056;2022-11-20T06:31:30;2.20;;;2.00;;
505;SDS011;551;48.524;9.056;2022-11-20T06:33:59;1.73;;;1.63;;
505;SDS011;551;48.524;9.056;2022-11-20T06:36:25;2.73;;;2.30;;
505;SDS011;551;48.524;9.056;2022-11-20T06:38:51;2.63;;;2.43;;
505;SDS011;551;48.524;9.056;2022-11-20T06:41:20;3.70;;;2.10;;
505;SDS011;551;48.524;9.056;2022-11-20T06:43:47;2.37;;;1.90;;
505;SDS011;551;48.524;9.056;2022-11-20T06:46:13;2.03;;;1.90;;
505;SDS011;551;48.524;9.056;2022-11-20T06:48:42;3.10;;;2.10;;
505;SDS011;551;48.524;9.056;2022-11-20T06:51:08;2.00;;;1.90;;
505;SDS011;551;48.524;9.056;2022-11-20T06:53:34;2.50;;;2.30;;
505;SDS011;551;48.524;9.056;2022-11-20T06:56:01;3.67;;;2.60;;
505;SDS011;551;48.524;9.056;2022-11-20T06:58:27;3.13;;;2.03;;
505;SDS011;551;48.524;9.056;2022-11-20T07:00:57;2.30;;;2.10;;
505;SDS011;551;48.524;9.056;2022-11-20T07:03:30;2.30;;;1.97;;
505;SDS011;551;48.524;9.056;2022-11-20T07:05:56;10.47;;;2.00;;
505;SDS011;551;48.524;9.056;2022-11-20T07:08:23;1.93;;;1.80;;
505;SDS011;551;48.524;9.056;2022-11-20T07:10:49;3.50;;;2.20;;
505;SDS011;551;48.524;9.056;2022-11-20T07:13:15;3.37;;;2.50;;
505;SDS011;551;48.524;9.056;2022-11-20T07:15:40;2.20;;;1.93;;
505;SDS011;551;48.524;9.056;2022-11-20T07:18:06;3.00;;;2.27;;
505;SDS011;551;48.524;9.056;2022-11-20T07:20:31;2.50;;;1.73;;
505;SDS011;551;48.524;9.056;2022-11-20T07:22:57;2.97;;;2.00;;
505;SDS011;551;48.524;9.056;2022-11-20T07:25:23;3.57;;;2.33;;
505;SDS011;551;48.524;9.056;2022-11-20T07:27:50;1.93;;;1.70;;
505;SDS011;551;48.524;9.056;2022-11-20T07:30:16;6.43;;;1.80;;
505;SDS011;551;48.524;9.056;2022-11-20T07:32:41;2.10;;;1.90;;
505;SDS011;551;48.524;9.056;2022-11-20T07:35:07;2.20;;;2.00;;
505;SDS011;551;48.524;9.056;2022-11-20T07:37:36;2.03;;;1.90;;
505;SDS011;551;48.524;9.056;2022-11-20T07:40:02;4.20;;;1.77;;
505;SDS011;551;48.524;9.056;2022-11-20T07:42:28;3.70;;;1.80;;
505;SDS011;551;48.524;9.056;2022-11-20T07:44:53;1.83;;;1.73;;
505;SDS011;551;48.524;9.056;2022-11-20T07:47:19;1.83;;;1.60;;
505;SDS011;551;48.524;9.056;2022-11-20T07:49:44;2.10;;;1.77;;
505;SDS011;551;48.524;9.056;2022-11-20T07:52:10;2.17;;;1.57;;
505;SDS011;551;48.524;9.056;2022-11-20T07:54:35;3.70;;;2.20;;
505;SDS011;551;48.524;9.056;2022-11-20T07:57:01;2.50;;;2.00;;
505;SDS011;551;48.524;9.056;2022-11-20T07:59:28;1.80;;;1.70;;
505;SDS011;551;48.524;9.056;2022-11-20T08:01:53;1.70;;;1.60;;
505;SDS011;551;48.524;9.056;2022-11-20T08:04:19;2.00;;;1.60;;
505;SDS011;551;48.524;9.056;2022-11-20T08:06:45;2.50;;;1.70;;
505;SDS011;551;48.524;9.056;2022-11-20T08:09:10;2.97;;;2.07;;
505;SDS011;551;48.524;9.056;2022-11-20T08:11:36;1.97;;;1.87;;
505;SDS011;551;48.524;9.056;2022-11-20T08:14:20;2.23;;;2.03;;
505;SDS011;551;48.524;9.056;2022-11-20T08:16:46;1.90;;;1.77;;
505;SDS011;551;48.524;9.056;2022-11-20T08:19:14;1.80;;;1.70;;
505;SDS011;551;48.524;9.056;2022-11-20T08:21:41;1.70;;;1.60;;
505;SDS011;551;48.524;9.056;2022-11-20T08:24:08;2.60;;;1.90;;
505;SDS011;551;48.524;9.056;2022-11-20T08:26:34;3.40;;;1.93;;
505;SDS011;551;48.524;9.056;2022-11-20T08:29:02;2.70;;;1.50;;
505;SDS011;551;48.524;9.056;2022-11-20T08:31:28;1.90;;;1.70;;
505;SDS011;551;48.524;9.056;2022-11-20T08:33:54;3.10;;;1.90;;
505;SDS011;551;48.524;9.056;2022-11-20T08:36:20;2.13;;;1.93;;
505;SDS011;551;48.524;9.056;2022-11-20T08:38:49;2.90;;;1.77;;
505;SDS011;551;48.524;9.056;2022-11-20T08:41:16;1.40;;;1.30;;
505;SDS011;551;48.524;9.056;2022-11-20T08:43:56;1.77;;;1.67;;
505;SDS011;551;48.524;9.056;2022-11-20T08:46:24;1.73;;;1.50;;
505;SDS011;551;48.524;9.056;2022-11-20T08:48:51;4.83;;;2.10;;
505;SDS011;551;48.524;9.056;2022-11-20T08:51:17;1.60;;;1.50;;
505;SDS011;551;48.524;9.056;2022-11-20T08:53:43;2.07;;;1.63;;
505;SDS011;551;48.524;9.056;2022-11-20T08:56:09;2.00;;;1.80;;
505;SDS011;551;48.524;9.056;2022-11-20T08:58:35;2.60;;;2.27;;
505;SDS011;551;48.524;9.056;2022-11-20T09:01:01;2.43;;;2.10;;
505;SDS011;551;48.524;9.056;2022-11-20T09:03:27;3.63;;;1.83;;
505;SDS011;551;48.524;9.056;2022-11-20T09:05:57;2.27;;;1.90;;
505;SDS011;551;48.524;9.056;2022-11-20T09:08:24;7.50;;;2.37;;
505;SDS011;551;48.524;9.056;2022-11-20T09:10:53;2.37;;;2.17;;
505;SDS011;551;48.524;9.056;2022-11-20T09:13:20;2.30;;;2.10;;
505;SDS011;551;48.524;9.056;2022-11-20T09:15:47;2.30;;;2.10;;
505;SDS011;551;48.524;9.056;2022-11-20T09:18:17;2.13;;;1.93;;
505;SDS011;551;48.524;9.056;2022-11-20T09:20:43;3.23;;;2.73;;
505;SDS011;551;48.524;9.056;2022-11-20T09:23:09;2.33;;;2.13;;
505;SDS011;551;48.524;9.056;2022-11-20T09:25:34;2.73;;;2.30;;
505;SDS011;551;48.524;9.056;2022-11-20T09:28:00;2.10;;;2.00;;
505;SDS011;551;48.524;9.056;2022-11-20T09:30:26;8.73;;;1.80;;
505;SDS011;551;48.524;9.056;2022-11-20T09:32:52;2.57;;;2.37;;
505;SDS011;551;48.524;9.056;2022-11-20T09:35:17;2.37;;;2.13;;
505;SDS011;551;48.524;9.056;2022-11-20T09:37:43;2.33;;;2.03;;
505;SDS011;551;48.524;9.056;2022-11-20T09:40:30;2.33;;;2.13;;
505;SDS011;551;48.524;9.056;2022-11-20T09:42:57;2.03;;;1.80;;
505;SDS011;551;48.524;9.056;2022-11-20T09:45:39;2.23;;;2.03;;
505;SDS011;551;48.524;9.056;2022-11-20T09:54:03;2.10;;;1.77;;
505;SDS011;551;48.524;9.056;2022-11-20T09:56:30;2.60;;;2.30;;
505;SDS011;551;48.524;9.056;2022-11-20T09:58:59;2.30;;;2.10;;
505;SDS011;551;48.524;9.056;2022-11-20T10:01:30;2.10;;;1.90;;
505;SDS011;551;48.524;9.056;2022-11-20T10:04:18;1.77;;;1.67;;
505;SDS011;551;48.524;9.056;2022-11-20T10:09:26;1.73;;;1.50;;
505;SDS011;551;48.524;9.056;2022-11-20T10:12:15;2.30;;;1.77;;
505;SDS011;551;48.524;9.056;2022-11-20T10:23:23;1.70;;;1.60;;
505;SDS011;551;48.524;9.056;2022-11-20T10:26:03;1.90;;;1.80;;
505;SDS011;551;48.524;9.056;2022-11-20T10:31:10;1.90;;;1.80;;
505;SDS011;551;48.524;9.056;2022-11-20T10:33:41;2.00;;;1.60;;
505;SDS011;551;48.524;9.056;2022-11-20T10:36:17;3.30;;;2.10;;
505;SDS011;551;48.524;9.056;2022-11-20T10:38:53;1.93;;;1.80;;
505;SDS011;551;48.524;9.056;2022-11-20T10:41:24;1.50;;;1.40;;
505;SDS011;551;48.524;9.056;2022-11-20T10:44:10;1.63;;;1.53;;
505;SDS011;551;48.524;9.056;2022-11-20T10:46:54;1.70;;;1.60;;
505;SDS011;551;48.524;9.056;2022-11-20T10:49:20;1.17;;;1.07;;
505;SDS011;551;48.524;9.056;2022-11-20T10:51:49;1.47;;;1.37;;
505;SDS011;551;48.524;9.056;2022-11-20T10:59:35;2.17;;;1.80;;
505;SDS011;551;48.524;9.056;2022-11-20T11:02:21;2.03;;;1.87;;
505;SDS011;551;48.524;9.056;2022-11-20T11:04:51;1.77;;;1.67;;
505;SDS011;551;48.524;9.056;2022-11-20T11:07:29;2.53;;;1.90;;
505;SDS011;551;48.524;9.056;2022-11-20T11:09:59;1.77;;;1.67;;
505;SDS011;551;48.524;9.056;2022-11-20T11:12:26;1.90;;;1.80;;
505;SDS011;551;48.524;9.056;2022-11-20T11:14:53;1.60;;;1.50;;
505;SDS011;551;48.524;9.056;2022-11-20T11:17:24;2.80;;;1.50;;
505;SDS011;551;48.524;9.056;2022-11-20T11:22:32;2.33;;;2.10;;
505;SDS011;551;48.524;9.056;2022-11-20T11:24:59;1.40;;;1.30;;
505;SDS011;551;48.524;9.056;2022-11-20T11:27:26;3.10;;;2.53;;
505;SDS011;551;48.524;9.056;2022-11-20T11:30:01;2.17;;;1.60;;
505;SDS011;551;48.524;9.056;2022-11-20T11:32:39;1.43;;;1.33;;
505;SDS011;551;48.524;9.056;2022-11-20T11:35:05;1.60;;;1.20;;
505;SDS011;551;48.524;9.056;2022-11-20T11:37:37;1.70;;;1.60;;
505;SDS011;551;48.524;9.056;2022-11-20T11:40:04;1.50;;;1.40;;
505;SDS011;551;48.524;9.056;2022-11-20T11:42:31;1.50;;;1.33;;
505;SDS011;551;48.524;9.056;2022-11-20T11:44:58;2.10;;;1.43;;
505;SDS011;551;48.524;9.056;2022-11-20T11:52:36;1.70;;;1.57;;
505;SDS011;551;48.524;9.056;2022-11-20T11:55:42;2.27;;;1.43;;
505;SDS011;551;48.524;9.056;2022-11-20T12:01:18;1.70;;;1.60;;
505;SDS011;551;48.524;9.056;2022-11-20T12:03:54;2.43;;;1.67;;
505;SDS011;551;48.524;9.056;2022-11-20T12:06:26;1.87;;;1.60;;
505;SDS011;551;48.524;9.056;2022-11-20T12:11:30;1.67;;;1.57;;
505;SDS011;551;48.524;9.056;2022-11-20T12:14:00;2.47;;;2.13;;
505;SDS011;551;48.524;9.056;2022-11-20T12:16:37;1.67;;;1.57;;
505;SDS011;551;48.524;9.056;2022-11-20T12:19:07;3.63;;;1.40;;
505;SDS011;551;48.524;9.056;2022-11-20T12:24:35;3.03;;;1.80;;
505;SDS011;551;48.524;9.056;2022-11-20T12:27:26;1.87;;;1.77;;
505;SDS011;551;48.524;9.056;2022-11-20T12:30:17;3.43;;;2.40;;
505;SDS011;551;48.524;9.056;2022-11-20T12:38:35;0.97;;;0.97;;
505;SDS011;551;48.524;9.056;2022-11-20T12:44:24;1.10;;;1.00;;
505;SDS011;551;48.524;9.056;2022-11-20T12:49:47;1.10;;;1.10;;
505;SDS011;551;48.524;9.056;2022-11-20T12:52:31;2.23;;;1.00;;
505;SDS011;551;48.524;9.056;2022-11-20T12:55:14;2.03;;;1.27;;
505;SDS011;551;48.524;9.056;2022-11-20T13:00:51;2.57;;;1.27;;
505;SDS011;551;48.524;9.056;2022-11-20T13:08:42;1.40;;;1.30;;
505;SDS011;551;48.524;9.056;2022-11-20T13:11:27;1.83;;;1.50;;
505;SDS011;551;48.524;9.056;2022-11-20T13:14:13;2.50;;;1.37;;
505;SDS011;551;48.524;9.056;2022-11-20T13:19:17;1.60;;;1.50;;
505;SDS011;551;48.524;9.056;2022-11-20T13:21:45;2.57;;;1.30;;
505;SDS011;551;48.524;9.056;2022-11-20T13:26:59;3.03;;;1.70;;
505;SDS011;551;48.524;9.056;2022-11-20T13:29:31;1.30;;;1.20;;
505;SDS011;551;48.524;9.056;2022-11-20T13:32:04;1.50;;;1.40;;
505;SDS011;551;48.524;9.056;2022-11-20T13:34:54;3.23;;;1.70;;
505;SDS011;551;48.524;9.056;2022-11-20T13:37:27;1.73;;;1.30;;
505;SDS011;551;48.524;9.056;2022-11-20T13:42:35;1.87;;;1.43;;
505;SDS011;551;48.524;9.056;2022-11-20T13:45:23;2.47;;;1.57;;
505;SDS011;551;48.524;9.056;2022-11-20T13:47:57;5.33;;;1.57;;
505;SDS011;551;48.524;9.056;2022-11-20T13:53:04;1.80;;;1.70;;
505;SDS011;551;48.524;9.056;2022-11-20T13:56:09;1.80;;;1.57;;
505;SDS011;551;48.524;9.056;2022-11-20T13:58:54;2.00;;;1.50;;
505;SDS011;551;48.524;9.056;2022-11-20T14:01:41;1.93;;;1.23;;
505;SDS011;551;48.524;9.056;2022-11-20T14:04:13;2.23;;;1.37;;
505;SDS011;551;48.524;9.056;2022-11-20T14:06:43;1.80;;;1.30;;
505;SDS011;551;48.524;9.056;2022-11-20T14:09:12;2.73;;;2.50;;
505;SDS011;551;48.524;9.056;2022-11-20T14:11:49;3.23;;;2.57;;
505;SDS011;551;48.524;9.056;2022-11-20T14:14:16;3.10;;;2.67;;
505;SDS011;551;48.524;9.056;2022-11-20T14:16:43;2.03;;;1.90;;
505;SDS011;551;48.524;9.056;2022-11-20T14:21:44;2.93;;;1.50;;
505;SDS011;551;48.524;9.056;2022-11-20T14:24:30;1.43;;;1.30;;
505;SDS011;551;48.524;9.056;2022-11-20T14:26:55;1.53;;;1.43;;
505;SDS011;551;48.524;9.056;2022-11-20T14:29:22;2.30;;;1.43;;
505;SDS011;551;48.524;9.056;2022-11-20T14:31:53;3.30;;;1.70;;
505;SDS011;551;48.524;9.056;2022-11-20T14:34:27;2.23;;;2.03;;
505;SDS011;551;48.524;9.056;2022-11-20T14:36:56;3.83;;;2.23;;
505;SDS011;551;48.524;9.056;2022-11-20T14:39:34;1.90;;;1.80;;
505;SDS011;551;48.524;9.056;2022-11-20T14:42:01;2.77;;;2.00;;
505;SDS011;551;48.524;9.056;2022-11-20T14:44:44;2.93;;;1.90;;
505;SDS011;551;48.524;9.056;2022-11-20T14:47:10;2.67;;;1.90;;
505;SDS011;551;48.524;9.056;2022-11-20T14:49:38;2.80;;;2.10;;
505;SDS011;551;48.524;9.056;2022-11-20T14:52:16;2.23;;;2.03;;
505;SDS011;551;48.524;9.056;2022-11-20T14:54:44;2.80;;;1.90;;
505;SDS011;551;48.524;9.056;2022-11-20T14:59:49;3.33;;;2.77;;
505;SDS011;551;48.524;9.056;2022-11-20T15:02:14;3.10;;;2.57;;
505;SDS011;551;48.524;9.056;2022-11-20T15:04:47;3.77;;;2.43;;
505;SDS011;551;48.524;9.056;2022-11-20T15:07:23;4.43;;;1.93;;
505;SDS011;551;48.524;9.056;2022-11-20T15:10:06;2.70;;;2.50;;
505;SDS011;551;48.524;9.056;2022-11-20T15:12:37;3.87;;;2.17;;
505;SDS011;551;48.524;9.056;2022-11-20T15:15:05;7.63;;;2.60;;
505;SDS011;551;48.524;9.056;2022-11-20T15:17:34;3.37;;;2.43;;
505;SDS011;551;48.524;9.056;2022-11-20T15:20:03;2.00;;;1.90;;
505;SDS011;551;48.524;9.056;2022-11-20T15:22:35;2.83;;;2.43;;
505;SDS011;551;48.524;9.056;2022-11-20T15:25:00;2.43;;;1.80;;
505;SDS011;551;48.524;9.056;2022-11-20T15:27:26;5.13;;;2.53;;
505;SDS011;551;48.524;9.056;2022-11-20T15:29:51;2.97;;;2.43;;
505;SDS011;551;48.524;9.056;2022-11-20T15:32:17;2.17;;;1.90;;
505;SDS011;551;48.524;9.056;2022-11-20T15:34:44;6.40;;;3.03;;
505;SDS011;551;48.524;9.056;2022-11-20T15:37:09;3.83;;;2.20;;
505;SDS011;551;48.524;9.056;2022-11-20T15:39:35;2.00;;;1.80;;
505;SDS011;551;48.524;9.056;2022-11-20T15:42:00;6.20;;;2.20;;
505;SDS011;551;48.524;9.056;2022-11-20T15:44:25;4.30;;;2.90;;
505;SDS011;551;48.524;9.056;2022-11-20T15:46:51;3.70;;;2.50;;
505;SDS011;551;48.524;9.056;2022-11-20T15:49:17;4.00;;;2.97;;
505;SDS011;551;48.524;9.056;2022-11-20T15:51:44;2.57;;;2.37;;
505;SDS011;551;48.524;9.056;2022-11-20T15:54:15;5.30;;;3.50;;
505;SDS011;551;48.524;9.056;2022-11-20T15:56:44;3.43;;;2.60;;
505;SDS011;551;48.524;9.056;2022-11-20T15:59:11;8.67;;;4.20;;
505;SDS011;551;48.524;9.056;2022-11-20T16:01:39;8.60;;;4.10;;
505;SDS011;551;48.524;9.056;2022-11-20T16:04:07;5.13;;;3.37;;
505;SDS011;551;48.524;9.056;2022-11-20T16:06:37;7.30;;;4.30;;
505;SDS011;551;48.524;9.056;2022-11-20T16:09:03;6.70;;;3.70;;
505;SDS011;551;48.524;9.056;2022-11-20T16:11:29;4.93;;;3.37;;
505;SDS011;551;48.524;9.056;2022-11-20T16:13:54;5.90;;;3.90;;
505;SDS011;551;48.524;9.056;2022-11-20T16:16:38;4.70;;;2.53;;
505;SDS011;551;48.524;9.056;2022-11-20T16:19:08;5.57;;;3.57;;
505;SDS011;551;48.524;9.056;2022-11-20T16:21:35;3.67;;;2.80;;
505;SDS011;551;48.524;9.056;2022-11-20T16:24:03;4.30;;;2.87;;
505;SDS011;551;48.524;9.056;2022-11-20T16:26:30;3.70;;;2.60;;
505;SDS011;551;48.524;9.056;2022-11-20T16:28:55;3.43;;;3.10;;
505;SDS011;551;48.524;9.056;2022-11-20T16:31:22;4.50;;;3.10;;
505;SDS011;551;48.524;9.056;2022-11-20T16:33:49;3.20;;;2.90;;
505;SDS011;551;48.524;9.056;2022-11-20T16:36:19;4.07;;;2.93;;
505;SDS011;551;48.524;9.056;2022-11-20T16:38:46;3.10;;;2.70;;
505;SDS011;551;48.524;9.056;2022-11-20T16:41:11;2.97;;;2.20;;
505;SDS011;551;48.524;9.056;2022-11-20T16:43:43;2.80;;;2.37;;
505;SDS011;551;48.524;9.056;2022-11-20T16:46:09;2.13;;;2.03;;
505;SDS011;551;48.524;9.056;2022-11-20T16:48:34;2.83;;;1.90;;
505;SDS011;551;48.524;9.056;2022-11-20T16:51:00;2.37;;;2.07;;
505;SDS011;551;48.524;9.056;2022-11-20T16:53:25;2.17;;;1.97;;
505;SDS011;551;48.524;9.056;2022-11-20T16:55:51;2.20;;;2.00;;
505;SDS011;551;48.524;9.056;2022-11-20T16:58:16;2.83;;;2.23;;
505;SDS011;551;48.524;9.056;2022-11-20T17:00:42;2.40;;;2.20;;
505;SDS011;551;48.524;9.056;2022-11-20T17:03:08;3.00;;;2.23;;
505;SDS011;551;48.524;9.056;2022-11-20T17:05:34;2.10;;;1.90;;
505;SDS011;551;48.524;9.056;2022-11-20T17:08:00;2.53;;;2.20;;
505;SDS011;551;48.524;9.056;2022-11-20T17:10:26;3.87;;;2.73;;
505;SDS011;551;48.524;9.056;2022-11-20T17:12:51;3.10;;;2.47;;
505;SDS011;551;48.524;9.056;2022-11-20T17:15:17;4.17;;;2.70;;